createdAt,value
2023-05-06T00:00:19.993Z,97380.78
2023-05-06T00:04:23.646Z,97378.91
2023-05-06T00:08:27.661Z,97382.31
2023-05-06T00:12:30.631Z,97374.16
2023-05-06T00:16:33.284Z,97362.47
2023-05-06T00:20:36.334Z,97354.81
2023-05-06T00:24:40.361Z,97359.03
2023-05-06T00:28:42.953Z,97357.84
2023-05-06T00:32:45.641Z,97349.09
2023-05-06T00:36:48.313Z,97351.00
2023-05-06T00:40:52.294Z,97341.69
2023-05-06T00:44:54.902Z,97342.72
2023-05-06T00:48:57.570Z,97340.25
2023-05-06T00:53:01.403Z,97340.00
2023-05-06T00:57:05.680Z,97340.84
2023-05-06T01:01:08.445Z,97340.84
2023-05-06T01:05:12.297Z,97350.41
2023-05-06T01:09:21.767Z,97344.25
2023-05-06T01:13:35.497Z,97340.47
2023-05-06T01:17:43.743Z,97339.38
2023-05-06T01:21:48.878Z,97338.44
2023-05-06T01:25:52.879Z,97340.22
2023-05-06T01:29:55.947Z,97333.13
2023-05-06T01:34:08.898Z,97334.16
2023-05-06T01:38:18.527Z,97336.53
2023-05-06T01:42:25.413Z,97345.97
2023-05-06T01:46:30.448Z,97343.50
2023-05-06T01:50:33.827Z,97348.94
2023-05-06T01:54:36.479Z,97345.13
2023-05-06T01:58:40.597Z,97342.53
2023-05-06T02:02:43.376Z,97339.22
2023-05-06T02:06:46.201Z,97343.69
2023-05-06T02:10:48.898Z,97346.84
2023-05-06T02:14:52.895Z,97334.00
2023-05-06T02:18:55.836Z,97339.88
2023-05-06T02:22:58.469Z,97342.34
2023-05-06T02:27:02.263Z,97342.81
2023-05-06T02:31:06.352Z,97341.38
2023-05-06T02:35:10.238Z,97343.50
2023-05-06T02:39:13.034Z,97349.75
2023-05-06T02:43:15.643Z,97334.19
2023-05-06T02:47:19.640Z,97333.34
2023-05-06T02:51:22.255Z,97335.47
2023-05-06T02:55:24.883Z,97331.91
2023-05-06T02:59:27.496Z,97326.75
2023-05-06T03:03:31.459Z,97327.78
2023-05-06T03:07:34.234Z,97337.81
2023-05-06T03:11:36.854Z,97320.72
2023-05-06T03:15:39.479Z,97329.44
2023-05-06T03:19:43.488Z,97337.09
2023-05-06T03:23:46.108Z,97343.63
2023-05-06T03:27:48.724Z,97332.97
2023-05-06T03:31:51.753Z,97331.91
2023-05-06T03:35:55.735Z,97311.28
2023-05-06T03:39:58.345Z,97328.16
2023-05-06T03:44:01.604Z,97329.81
2023-05-06T03:48:04.563Z,97329.19
2023-05-06T03:52:08.596Z,97324.63
2023-05-06T03:56:11.236Z,97336.88
2023-05-06T04:00:14.565Z,97336.28
2023-05-06T04:04:17.177Z,97338.56
2023-05-06T04:08:21.120Z,97337.97
2023-05-06T04:12:23.751Z,97344.22
2023-05-06T04:16:26.566Z,97355.97
2023-05-06T04:20:29.413Z,97351.44
2023-05-06T04:24:33.837Z,97346.66
2023-05-06T04:28:36.737Z,97352.91
2023-05-06T04:32:40.518Z,97352.19
2023-05-06T04:36:43.406Z,97342.75
2023-05-06T04:40:47.379Z,97339.59
2023-05-06T04:44:50.122Z,97356.84
2023-05-06T04:48:52.753Z,97364.25
2023-05-06T04:52:55.365Z,97368.16
2023-05-06T04:57:02.238Z,97380.28
2023-05-06T05:01:08.891Z,97385.28
2023-05-06T05:05:12.173Z,97385.88
2023-05-06T05:09:15.134Z,97388.59
2023-05-06T05:13:19.162Z,97390.22
2023-05-06T05:17:21.909Z,97395.00
2023-05-06T05:21:24.568Z,97397.38
2023-05-06T05:25:31.748Z,97379.84
2023-05-06T05:29:35.800Z,97364.91
2023-05-06T05:33:38.471Z,97378.97
2023-05-06T05:37:41.135Z,97393.69
2023-05-06T05:41:43.776Z,97392.75
2023-05-06T05:45:47.712Z,97401.75
2023-05-06T05:49:50.312Z,97398.53
2023-05-06T05:53:53.343Z,97410.69
2023-05-06T05:57:55.997Z,97402.91
2023-05-06T06:02:00.172Z,97398.19
2023-05-06T06:06:02.840Z,97393.75
2023-05-06T06:10:06.484Z,97393.50
2023-05-06T06:14:09.181Z,97392.34
2023-05-06T06:18:13.752Z,97405.13
2023-05-06T06:22:16.433Z,97401.66
2023-05-06T06:26:20.887Z,97395.78
2023-05-06T06:30:24.523Z,97398.88
2023-05-06T06:34:28.496Z,97405.69
2023-05-06T06:38:31.622Z,97417.88
2023-05-06T06:42:34.333Z,97414.72
2023-05-06T06:46:36.966Z,97416.41
2023-05-06T06:50:41.003Z,97421.47
2023-05-06T06:54:43.627Z,97423.97
2023-05-06T06:58:46.392Z,97418.88
2023-05-06T07:02:49.438Z,97430.09
2023-05-06T07:06:53.408Z,97443.59
2023-05-06T07:10:56.592Z,97445.59
2023-05-06T07:14:59.277Z,97445.13
2023-05-06T07:19:02.153Z,97443.22
2023-05-06T07:23:06.422Z,97453.50
2023-05-06T07:27:09.125Z,97454.19
2023-05-06T07:31:11.776Z,97445.22
2023-05-06T07:35:14.430Z,97448.81
2023-05-06T07:39:18.456Z,97450.44
2023-05-06T07:43:23.069Z,97450.78
2023-05-06T07:47:31.440Z,97457.53
2023-05-06T07:51:34.238Z,97467.47
2023-05-06T07:55:38.611Z,97466.63
2023-05-06T07:59:41.306Z,97466.41
2023-05-06T08:03:45.171Z,97466.41
2023-05-06T08:07:47.899Z,97466.25
2023-05-06T08:11:52.077Z,97476.53
2023-05-06T08:15:55.141Z,97484.84
2023-05-06T08:19:57.800Z,97483.16
2023-05-06T08:24:00.421Z,97489.53
2023-05-06T08:28:04.617Z,97492.22
2023-05-06T08:32:07.488Z,97496.69
2023-05-06T08:36:10.283Z,97497.38
2023-05-06T08:40:19.747Z,97498.53
2023-05-06T08:44:25.802Z,97491.41
2023-05-06T08:48:29.934Z,97502.41
2023-05-06T08:52:33.302Z,97503.34
2023-05-06T08:56:37.588Z,97488.63
2023-05-06T09:00:41.599Z,97484.72
2023-05-06T09:04:45.303Z,97489.34
2023-05-06T09:08:48.366Z,97486.75
2023-05-06T09:12:51.346Z,97497.94
2023-05-06T09:16:55.348Z,97490.19
2023-05-06T09:21:00.153Z,97502.59
2023-05-06T09:25:07.439Z,97492.34
2023-05-06T09:29:11.910Z,97495.59
2023-05-06T09:33:19.051Z,97488.84
2023-05-06T09:37:31.268Z,97486.72
2023-05-06T09:41:35.965Z,97496.38
2023-05-06T09:45:38.634Z,97479.84
2023-05-06T09:49:43.299Z,97480.75
2023-05-06T09:53:46.754Z,97476.03
2023-05-06T09:57:50.316Z,97470.19
2023-05-06T10:01:53.214Z,97484.16
2023-05-06T10:06:00.213Z,97463.66
2023-05-06T10:10:04.660Z,97460.09
2023-05-06T10:14:07.947Z,97467.66
2023-05-06T10:18:11.799Z,97465.41
2023-05-06T10:22:28.935Z,97459.81
2023-05-06T10:26:31.962Z,97467.72
2023-05-06T10:30:35.781Z,97462.72
2023-05-06T10:34:48.380Z,97460.31
2023-05-06T10:38:56.473Z,97459.00
2023-05-06T10:43:24.577Z,97445.69
2023-05-06T10:47:27.688Z,97441.72
2023-05-06T10:51:30.391Z,97432.97
2023-05-06T10:55:36.603Z,97431.31
2023-05-06T10:59:46.627Z,97428.84
2023-05-06T11:03:51.772Z,97425.53
2023-05-06T11:08:08.624Z,97423.09
2023-05-06T11:12:12.625Z,97427.72
2023-05-06T11:16:47.824Z,97415.19
2023-05-06T11:20:50.856Z,97414.16
2023-05-06T11:24:54.810Z,97412.88
2023-05-06T11:29:02.175Z,97422.25
2023-05-06T11:33:06.049Z,97417.56
2023-05-06T11:37:11.764Z,97416.72
2023-05-06T11:41:14.536Z,97413.31
2023-05-06T11:45:19.835Z,97417.16
2023-05-06T11:49:22.433Z,97408.44
2023-05-06T11:53:25.795Z,97407.38
2023-05-06T11:57:28.526Z,97410.09
2023-05-06T12:01:32.492Z,97411.06
2023-05-06T12:05:35.163Z,97404.97
2023-05-06T12:09:38.808Z,97401.78
2023-05-06T12:13:41.641Z,97406.88
2023-05-06T12:17:45.887Z,97407.72
2023-05-06T12:21:48.673Z,97402.25
2023-05-06T12:26:03.905Z,97390.78
2023-05-06T12:30:09.480Z,97394.69
2023-05-06T12:34:14.191Z,97388.72
2023-05-06T12:38:18.020Z,97390.00
2023-05-06T12:42:21.440Z,97393.78
2023-05-06T12:46:24.146Z,97389.03
2023-05-06T12:50:37.148Z,97391.47
2023-05-06T12:54:40.275Z,97387.72
2023-05-06T12:58:43.013Z,97382.25
2023-05-06T13:02:45.933Z,97378.63
2023-05-06T13:06:51.178Z,97387.72
2023-05-06T13:10:53.631Z,97368.50
2023-05-06T13:14:56.289Z,97359.41
2023-05-06T13:18:59.021Z,97367.59
2023-05-06T13:23:03.316Z,97370.72
2023-05-06T13:27:06.058Z,97366.38
2023-05-06T13:31:09.072Z,97356.56
2023-05-06T13:35:12.000Z,97358.13
2023-05-06T13:39:18.602Z,97367.72
2023-05-06T13:43:21.684Z,97350.63
2023-05-06T13:47:25.154Z,97351.28
2023-05-06T13:51:30.786Z,97344.88
2023-05-06T13:55:34.898Z,97345.03
2023-05-06T13:59:37.529Z,97341.56
2023-05-06T14:03:40.634Z,97343.47
2023-05-06T14:07:43.278Z,97328.75
2023-05-06T14:11:47.321Z,97325.47
2023-05-06T14:15:50.151Z,97333.13
2023-05-06T14:19:52.784Z,97315.38
2023-05-06T14:23:55.408Z,97321.06
2023-05-06T14:27:59.363Z,97318.97
2023-05-06T14:32:02.052Z,97315.88
2023-05-06T14:36:05.153Z,97314.13
2023-05-06T14:40:10.043Z,97310.13
2023-05-06T14:44:14.034Z,97306.13
2023-05-06T14:48:16.658Z,97304.28
2023-05-06T14:52:19.468Z,97301.56
2023-05-06T14:56:22.183Z,97307.34
2023-05-06T15:00:26.510Z,97313.56
2023-05-06T15:04:29.132Z,97314.53
2023-05-06T15:08:31.799Z,97304.13
2023-05-06T15:12:34.681Z,97308.09
2023-05-06T15:16:38.724Z,97311.47
2023-05-06T15:20:41.412Z,97304.16
2023-05-06T15:24:44.226Z,97303.06
2023-05-06T15:28:46.870Z,97296.28
2023-05-06T15:32:50.874Z,97295.13
2023-05-06T15:36:54.882Z,97292.19
2023-05-06T15:40:57.540Z,97289.41
2023-05-06T15:45:00.348Z,97291.19
2023-05-06T15:49:29.553Z,97296.91
2023-05-06T15:53:28.852Z,97299.06
2023-05-06T15:57:31.482Z,97298.38
2023-05-06T16:02:04.720Z,97297.38
2023-05-06T16:06:00.516Z,97295.19
2023-05-06T16:10:03.462Z,97295.72
2023-05-06T16:14:06.151Z,97285.94
2023-05-06T16:18:08.851Z,97280.94
2023-05-06T16:22:12.837Z,97280.06
2023-05-06T16:26:16.698Z,97282.03
2023-05-06T16:30:19.453Z,97284.78
2023-05-06T16:34:22.132Z,97280.06
2023-05-06T16:38:26.297Z,97283.50
2023-05-06T16:42:28.936Z,97282.66
2023-05-06T16:46:33.173Z,97288.88
2023-05-06T16:50:35.883Z,97285.69
2023-05-06T16:54:39.828Z,97280.69
2023-05-06T16:58:42.882Z,97277.97
2023-05-06T17:02:46.143Z,97278.72
2023-05-06T17:06:48.799Z,97290.75
2023-05-06T17:10:52.742Z,97286.94
2023-05-06T17:14:55.604Z,97288.75
2023-05-06T17:18:58.228Z,97286.16
2023-05-06T17:23:00.850Z,97282.25
2023-05-06T17:27:04.909Z,97288.91
2023-05-06T17:31:07.574Z,97290.03
2023-05-06T17:35:10.872Z,97286.69
2023-05-06T17:39:13.634Z,97289.72
2023-05-06T17:43:17.759Z,97286.69
2023-05-06T17:47:22.839Z,97290.59
2023-05-06T17:51:26.888Z,97290.38
2023-05-06T17:55:29.518Z,97287.13
2023-05-06T17:59:33.560Z,97289.91
2023-05-06T18:03:36.473Z,97298.72
2023-05-06T18:07:39.254Z,97292.19
2023-05-06T18:11:42.551Z,97296.59
2023-05-06T18:15:46.581Z,97291.97
2023-05-06T18:19:49.267Z,97302.63
2023-05-06T18:23:58.722Z,97306.41
2023-05-06T18:28:08.553Z,97301.72
2023-05-06T18:32:12.590Z,97310.16
2023-05-06T18:36:15.363Z,97308.22
2023-05-06T18:40:18.518Z,97309.44
2023-05-06T18:44:21.214Z,97313.22
2023-05-06T18:48:26.117Z,97318.53
2023-05-06T18:52:28.777Z,97324.38
2023-05-06T18:56:31.779Z,97324.84
2023-05-06T19:00:34.607Z,97333.50
2023-05-06T19:04:38.626Z,97333.88
2023-05-06T19:08:41.777Z,97333.91
2023-05-06T19:12:45.547Z,97338.41
2023-05-06T19:16:49.284Z,97340.91
2023-05-06T19:20:53.580Z,97342.44
2023-05-06T19:24:57.865Z,97332.22
2023-05-06T19:29:00.555Z,97332.13
2023-05-06T19:33:04.093Z,97330.84
2023-05-06T19:37:09.150Z,97326.63
2023-05-06T19:41:11.800Z,97334.50
2023-05-06T19:45:16.786Z,97341.19
2023-05-06T19:49:21.462Z,97347.41
2023-05-06T19:53:25.630Z,97352.09
2023-05-06T19:57:28.308Z,97353.84
2023-05-06T20:01:30.976Z,97355.09
2023-05-06T20:05:33.591Z,97356.91
2023-05-06T20:09:37.709Z,97350.53
2023-05-06T20:13:40.276Z,97350.25
2023-05-06T20:17:42.904Z,97346.00
2023-05-06T20:21:45.581Z,97342.59
2023-05-06T20:25:51.508Z,97341.78
2023-05-06T20:29:54.161Z,97356.97
2023-05-06T20:33:56.820Z,97344.38
2023-05-06T20:37:59.755Z,97345.47
2023-05-06T20:42:03.772Z,97344.44
2023-05-06T20:46:06.816Z,97350.00
2023-05-06T20:50:16.237Z,97346.63
2023-05-06T20:54:18.989Z,97343.59
2023-05-06T20:58:23.009Z,97341.34
2023-05-06T21:02:29.164Z,97339.44
2023-05-06T21:06:32.176Z,97342.13
2023-05-06T21:10:34.880Z,97348.53
2023-05-06T21:14:38.974Z,97349.00
2023-05-06T21:18:41.895Z,97349.09
2023-05-06T21:22:44.537Z,97352.19
2023-05-06T21:26:47.175Z,97349.81
2023-05-06T21:30:51.154Z,97346.50
2023-05-06T21:34:53.834Z,97347.91
2023-05-06T21:39:03.346Z,97345.97
2023-05-06T21:43:06.009Z,97342.75
2023-05-06T21:47:10.185Z,97344.63
2023-05-06T21:51:14.894Z,97346.16
2023-05-06T21:55:17.878Z,97354.88
2023-05-06T21:59:20.719Z,97346.81
2023-05-06T22:03:24.965Z,97354.00
2023-05-06T22:07:27.599Z,97349.25
2023-05-06T22:11:30.209Z,97357.84
2023-05-06T22:15:33.216Z,97363.28
2023-05-06T22:19:38.406Z,97353.56
2023-05-06T22:23:41.536Z,97359.47
2023-05-06T22:27:44.163Z,97356.66
2023-05-06T22:31:47.000Z,97355.53
2023-05-06T22:35:51.082Z,97352.31
2023-05-06T22:39:56.666Z,97347.84
2023-05-06T22:44:00.819Z,97351.69
2023-05-06T22:48:03.492Z,97353.88
2023-05-06T22:52:07.581Z,97358.09
2023-05-06T22:56:10.467Z,97370.94
2023-05-06T23:00:13.843Z,97362.25
2023-05-06T23:04:16.678Z,97363.53
2023-05-06T23:08:20.949Z,97372.50
2023-05-06T23:12:23.562Z,97365.22
2023-05-06T23:16:26.338Z,97366.47
2023-05-06T23:20:29.003Z,97353.59
2023-05-06T23:24:32.941Z,97365.34
2023-05-06T23:28:35.657Z,97359.13
2023-05-06T23:32:38.805Z,97362.22
2023-05-06T23:36:41.508Z,97353.13
2023-05-06T23:40:45.824Z,97363.34
2023-05-06T23:44:48.791Z,97356.88
2023-05-06T23:48:51.461Z,97357.53
2023-05-06T23:52:54.040Z,97354.69
2023-05-06T23:56:57.996Z,97350.97
